首页
METAR-TAF:

METAR-TAF

机场 :

旭川機場

旭川, 日本

纬度: 43-40N, 经度: 142-27E, 海拔: 208米

当前天气观测

该预报发布于1小时和5分钟前的04:00 UTC
风速2节,风向多变
温度 27°C
湿度 58%
气压 1015 hPa
能见度10公里或以上
少量云层高于1500英尺
散云层高于4000英尺
多云

METAR: RJEC 150400Z VRB02KT 9999 FEW015 SCT040 BKN/// 27/18 Q1015

时间: 14:05 (05:05 UTC)

预报

该预报发布于6小时和0分钟前的23:05 UTC
预报有效从15日的 00点(UTC)到 16日的 06点(UTC)
风速4节,风向南转南东
能见度10公里或以上
少量云层高于3000英尺
散云层高于6000英尺
成为
从 15日的 00点(UTC)到 15日的 02点(UTC)
风速5节,风向
成为
从 15日的 10点(UTC)到 15日的 12点(UTC)
风速5节,风向南转南东
成为
从 16日的 03点(UTC)到 16日的 06点(UTC)
风速7节,风向西转西南

TAF: RJEC 142305Z 1500/1606 16004KT 9999 FEW030 SCT060 BECMG 1500/1502 36005KT BECMG 1510/1512 16005KT BECMG 1603/1606 25007KT

超过4000个机场的气象观测和天气预报(METAR&TAF报告)。

可查询的气象台以黄色和红色小点在地图上表示。

将鼠标移到小点上方,可查看气象台名称。

然后点击查看天气观测和预报。

如需切换地图:点击带黑十字的绿色按钮放大地图;点击带横线的绿色按钮缩小地图;或者点击绿色箭头查看邻近地区的地图。


METAR-TAF: